Time;durP1;ratioP1;P1;durP2;ratioP2;P2;SDS_P1;SDS_P2;PMS_P1;PMS_P2;Temp;Humidity;BMP_temperature;BMP_pressure;BME280_temperature;BME280_humidity;BME280_pressure;Samples;Min_cycle;Max_cycle;Signal;HPM_P1;HPM_P2
2022/04/23 00:06:58;;;;;;;;;12.00;12.00;;;;;;;;2;288083704;288083704;-80
2022/04/23 00:15:14;;;;;;;;;16.00;16.00;;;;;;;;2;261077090;261077090;-81
2022/04/23 00:24:42;;;;;;;;;9.00;9.00;;;;;;;;2;288084205;288084205;-80
2022/04/23 00:32:58;;;;;;;;;13.00;13.00;;;;;;;;2;261077327;261077327;-80
2022/04/23 00:42:25;;;;;;;;;20.00;12.00;;;;;;;;2;288083033;288083033;-80
2022/04/23 00:50:41;;;;;;;;;16.50;16.50;;;;;;;;2;261076401;261076401;-81
2022/04/23 01:00:09;;;;;;;;;16.50;16.50;;;;;;;;2;288085121;288085121;-80
2022/04/23 01:08:26;;;;;;;;;9.50;9.50;;;;;;;;2;261075507;261075507;-80
2022/04/23 01:17:54;;;;;;;;;22.00;17.00;;;;;;;;2;288085865;288085865;-80
2022/04/23 01:26:10;;;;;;;;;31.50;16.50;;;;;;;;2;261073457;261073457;-80
2022/04/23 01:35:37;;;;;;;;;12.00;9.50;;;;;;;;2;288084152;288084152;-80
2022/04/23 01:43:53;;;;;;;;;13.00;13.00;;;;;;;;2;261076491;261076491;-80
2022/04/23 01:53:22;;;;;;;;;26.50;21.50;;;;;;;;2;288086239;288086239;-79
2022/04/23 02:01:38;;;;;;;;;22.50;10.50;;;;;;;;2;261075960;261075960;-79
2022/04/23 02:11:06;;;;;;;;;22.50;17.00;;;;;;;;2;288084857;288084857;-79
2022/04/23 02:19:22;;;;;;;;;8.50;8.50;;;;;;;;2;261075255;261075255;-80
2022/04/23 02:28:50;;;;;;;;;5.50;5.50;;;;;;;;2;288085967;288085967;-80
2022/04/23 02:37:07;;;;;;;;;18.50;18.50;;;;;;;;2;261076427;261076427;-80
2022/04/23 02:46:35;;;;;;;;;17.00;17.00;;;;;;;;2;288083196;288083196;-80
2022/04/23 02:54:51;;;;;;;;;13.50;13.50;;;;;;;;2;261076962;261076962;-80
2022/04/23 03:04:19;;;;;;;;;12.50;12.50;;;;;;;;2;288085350;288085350;-80
2022/04/23 03:12:38;;;;;;;;;17.00;17.00;;;;;;;;2;261077093;261077093;-80
2022/04/23 03:22:05;;;;;;;;;15.50;15.50;;;;;;;;2;288084124;288084124;-80
2022/04/23 03:30:21;;;;;;;;;7.00;7.00;;;;;;;;2;261076392;261076392;-80
2022/04/23 03:39:49;;;;;;;;;16.00;16.00;;;;;;;;2;288083376;288083376;-80
2022/04/23 03:48:04;;;;;;;;;14.00;11.00;;;;;;;;2;261078538;261078538;-80
2022/04/23 03:57:42;;;;;;;;;21.00;12.50;;;;;;;;2;288085451;288085451;-80
2022/04/23 04:05:57;;;;;;;;;14.00;12.00;;;;;;;;2;261077408;261077408;-80
2022/04/23 04:15:25;;;;;;;;;12.00;9.00;;;;;;;;2;288083028;288083028;-80
2022/04/23 04:23:40;;;;;;;;;21.50;16.50;;;;;;;;2;261077666;261077666;-80
2022/04/23 04:33:08;;;;;;;;;11.00;11.00;;;;;;;;2;288083863;288083863;-80
2022/04/23 04:41:23;;;;;;;;;16.00;10.00;;;;;;;;2;261075235;261075235;-80
2022/04/23 04:50:51;;;;;;;;;21.00;21.00;;;;;;;;2;288083021;288083021;-79
2022/04/23 04:59:06;;;;;;;;;9.00;9.00;;;;;;;;2;261075542;261075542;-79
2022/04/23 05:08:34;;;;;;;;;7.50;7.50;;;;;;;;2;288082898;288082898;-80
2022/04/23 05:16:50;;;;;;;;;13.50;13.50;;;;;;;;2;261073810;261073810;-79
2022/04/23 05:26:18;;;;;;;;;17.00;15.50;;;;;;;;2;288081833;288081833;-79
2022/04/23 05:34:35;;;;;;;;;14.50;14.50;;;;;;;;2;261076930;261076930;-80
2022/04/23 05:44:02;;;;;;;;;24.50;19.00;;;;;;;;2;288083811;288083811;-80
2022/04/23 05:52:18;;;;;;;;;23.50;18.50;;;;;;;;2;261078242;261078242;-79
2022/04/23 06:01:45;;;;;;;;;10.50;10.50;;;;;;;;2;288083818;288083818;-80
2022/04/23 06:10:01;;;;;;;;;18.00;18.00;;;;;;;;2;261074429;261074429;-80
2022/04/23 06:19:31;;;;;;;;;12.00;3.00;;;;;;;;2;288084396;288084396;-80
2022/04/23 06:27:46;;;;;;;;;16.50;16.50;;;;;;;;2;261075860;261075860;-79
2022/04/23 06:37:16;;;;;;;;;17.00;17.00;;;;;;;;2;288084145;288084145;-80
2022/04/23 06:45:32;;;;;;;;;23.50;14.50;;;;;;;;2;261079500;261079500;-82
2022/04/23 06:54:59;;;;;;;;;16.50;16.50;;;;;;;;2;288082364;288082364;-79
2022/04/23 07:03:15;;;;;;;;;19.00;14.50;;;;;;;;2;261077554;261077554;-78
2022/04/23 07:12:42;;;;;;;;;16.50;16.50;;;;;;;;2;288088057;288088057;-79
2022/04/23 07:20:58;;;;;;;;;13.00;13.00;;;;;;;;2;261077396;261077396;-82
2022/04/23 07:30:26;;;;;;;;;20.50;15.50;;;;;;;;2;288086899;288086899;-82
2022/04/23 07:38:41;;;;;;;;;9.50;9.50;;;;;;;;2;261074005;261074005;-84
2022/04/23 07:48:09;;;;;;;;;16.00;16.00;;;;;;;;2;288084603;288084603;-80
2022/04/23 07:56:25;;;;;;;;;30.50;30.00;;;;;;;;2;261079833;261079833;-82
2022/04/23 08:05:52;;;;;;;;;10.50;10.50;;;;;;;;2;288086208;288086208;-84
2022/04/23 08:14:08;;;;;;;;;17.00;17.00;;;;;;;;2;261076371;261076371;-82
2022/04/23 08:23:35;;;;;;;;;48.50;31.50;;;;;;;;2;288090173;288090173;-82
2022/04/23 08:31:52;;;;;;;;;16.00;16.00;;;;;;;;2;261077114;261077114;-81
2022/04/23 08:41:20;;;;;;;;;12.50;11.00;;;;;;;;2;288084026;288084026;-79
2022/04/23 08:49:39;;;;;;;;;22.50;22.50;;;;;;;;2;261078190;261078190;-79
2022/04/23 08:59:06;;;;;;;;;28.50;24.50;;;;;;;;2;288084264;288084264;-82
2022/04/23 09:07:26;;;;;;;;;42.00;22.50;;;;;;;;2;261078950;261078950;-80
2022/04/23 09:25:31;;;;;;;;;32.00;29.00;;;;;;;;2;261074157;261074157;-81
2022/04/23 09:35:04;;;;;;;;;21.00;21.00;;;;;;;;2;288079554;288079554;-82
2022/04/23 09:43:25;;;;;;;;;17.50;17.50;;;;;;;;2;261077107;261077107;-81
2022/04/23 09:53:07;;;;;;;;;28.50;21.50;;;;;;;;2;288082899;288082899;-82
2022/04/23 10:01:23;;;;;;;;;17.50;17.50;;;;;;;;2;261077138;261077138;-80
2022/04/23 10:10:55;;;;;;;;;8.00;8.00;;;;;;;;2;288083304;288083304;-77
2022/04/23 10:19:10;;;;;;;;;32.50;23.50;;;;;;;;2;261074835;261074835;-79
2022/04/23 10:28:42;;;;;;;;;17.00;15.50;;;;;;;;2;288086569;288086569;-79
2022/04/23 10:37:28;;;;;;;;;20.00;20.00;;;;;;;;2;261071925;261071925;-78
2022/04/23 10:46:58;;;;;;;;;11.50;9.50;;;;;;;;2;288083928;288083928;-80
2022/04/23 10:55:14;;;;;;;;;14.00;14.00;;;;;;;;2;261074769;261074769;-80
2022/04/23 11:13:34;;;;;;;;;9.50;9.50;;;;;;;;2;261073361;261073361;-80
2022/04/23 11:23:02;;;;;;;;;10.50;10.50;;;;;;;;2;288083899;288083899;-80
2022/04/23 11:31:17;;;;;;;;;9.00;9.00;;;;;;;;2;261078203;261078203;-80
2022/04/23 11:40:45;;;;;;;;;8.50;8.50;;;;;;;;2;288082771;288082771;-81
2022/04/23 11:49:00;;;;;;;;;17.00;8.50;;;;;;;;2;261076825;261076825;-86
2022/04/23 11:58:28;;;;;;;;;8.00;8.00;;;;;;;;2;288085255;288085255;-81
2022/04/23 12:06:44;;;;;;;;;15.00;15.00;;;;;;;;2;261076030;261076030;-82
2022/04/23 12:16:11;;;;;;;;;10.50;10.50;;;;;;;;2;288082516;288082516;-82
2022/04/23 12:24:31;;;;;;;;;6.50;6.50;;;;;;;;2;261077702;261077702;-82
2022/04/23 12:42:43;;;;;;;;;6.50;6.50;;;;;;;;2;261074783;261074783;-83
2022/04/23 12:52:20;;;;;;;;;7.50;7.50;;;;;;;;2;288082813;288082813;-81
2022/04/23 13:00:37;;;;;;;;;7.00;7.00;;;;;;;;2;261075863;261075863;-80
2022/04/23 13:10:04;;;;;;;;;9.00;9.00;;;;;;;;2;288085546;288085546;-80
2022/04/23 13:18:20;;;;;;;;;6.50;6.50;;;;;;;;2;261074909;261074909;-79
2022/04/23 13:27:47;;;;;;;;;9.50;9.50;;;;;;;;2;288083030;288083030;-81
2022/04/23 13:36:03;;;;;;;;;6.00;6.00;;;;;;;;2;261076933;261076933;-81
2022/04/23 13:45:31;;;;;;;;;4.50;4.50;;;;;;;;2;288085247;288085247;-82
2022/04/23 13:53:46;;;;;;;;;8.00;8.00;;;;;;;;2;261075521;261075521;-82
2022/04/23 14:11:48;;;;;;;;;5.00;5.00;;;;;;;;2;261073837;261073837;-77
2022/04/23 14:21:15;;;;;;;;;7.50;7.50;;;;;;;;2;288081258;288081258;-78
2022/04/23 14:29:31;;;;;;;;;5.50;5.50;;;;;;;;2;261078810;261078810;-76
2022/04/23 14:38:59;;;;;;;;;9.50;8.00;;;;;;;;2;288086208;288086208;-77
2022/04/23 14:47:14;;;;;;;;;10.00;4.50;;;;;;;;2;261078136;261078136;-76
2022/04/23 14:56:42;;;;;;;;;4.50;4.50;;;;;;;;2;288085102;288085102;-76
2022/04/23 15:04:57;;;;;;;;;5.00;5.00;;;;;;;;2;261077452;261077452;-75
2022/04/23 15:14:25;;;;;;;;;6.00;6.00;;;;;;;;2;288084151;288084151;-75
